sensor_id;sensor_type;location;lat;lon;timestamp;pressure;altitude;pressure_sealevel;temperature;humidity
80410;BME280;69746;45.596;10.154;2023-07-31T00:01:11;99244.72;;;26.95;55.83
80410;BME280;69746;45.596;10.154;2023-07-31T00:03:37;99240.66;;;26.93;56.26
80410;BME280;69746;45.596;10.154;2023-07-31T00:06:03;99236.25;;;26.92;55.96
80410;BME280;69746;45.596;10.154;2023-07-31T00:08:31;99236.81;;;26.97;56.00
80410;BME280;69746;45.596;10.154;2023-07-31T00:10:57;99240.44;;;26.98;55.95
80410;BME280;69746;45.596;10.154;2023-07-31T00:13:24;99243.22;;;26.98;55.86
80410;BME280;69746;45.596;10.154;2023-07-31T00:15:50;99248.81;;;26.98;55.87
80410;BME280;69746;45.596;10.154;2023-07-31T00:18:16;99256.03;;;26.99;55.65
80410;BME280;69746;45.596;10.154;2023-07-31T00:20:42;99250.44;;;26.99;55.83
80410;BME280;69746;45.596;10.154;2023-07-31T00:23:08;99241.94;;;26.95;55.76
80410;BME280;69746;45.596;10.154;2023-07-31T00:25:34;99243.69;;;27.00;55.81
80410;BME280;69746;45.596;10.154;2023-07-31T00:28:05;99249.28;;;27.00;55.82
80410;BME280;69746;45.596;10.154;2023-07-31T00:30:34;99259.22;;;26.97;55.96
80410;BME280;69746;45.596;10.154;2023-07-31T00:33:00;99254.41;;;26.98;55.85
80410;BME280;69746;45.596;10.154;2023-07-31T00:35:25;99256.78;;;26.96;56.21
80410;BME280;69746;45.596;10.154;2023-07-31T00:37:51;99263.50;;;26.95;56.38
80410;BME280;69746;45.596;10.154;2023-07-31T00:40:17;99255.13;;;26.95;56.57
80410;BME280;69746;45.596;10.154;2023-07-31T00:42:43;99261.88;;;26.94;56.85
80410;BME280;69746;45.596;10.154;2023-07-31T00:45:09;99256.56;;;26.89;56.58
80410;BME280;69746;45.596;10.154;2023-07-31T00:47:35;99256.56;;;26.89;56.91
80410;BME280;69746;45.596;10.154;2023-07-31T00:50:01;99261.06;;;26.93;56.66
80410;BME280;69746;45.596;10.154;2023-07-31T00:52:27;99268.66;;;26.93;56.82
80410;BME280;69746;45.596;10.154;2023-07-31T00:54:52;99267.38;;;26.90;56.60
80410;BME280;69746;45.596;10.154;2023-07-31T00:57:18;99266.47;;;26.86;56.54
80410;BME280;69746;45.596;10.154;2023-07-31T00:59:44;99271.72;;;26.88;56.62
80410;BME280;69746;45.596;10.154;2023-07-31T01:02:12;99274.16;;;26.89;56.40
80410;BME280;69746;45.596;10.154;2023-07-31T01:04:38;99264.03;;;26.85;56.87
80410;BME280;69746;45.596;10.154;2023-07-31T01:07:12;99273.34;;;26.89;56.58
80410;BME280;69746;45.596;10.154;2023-07-31T01:10:02;99266.94;;;26.88;56.54
80410;BME280;69746;45.596;10.154;2023-07-31T01:12:31;99268.47;;;26.86;56.58
80410;BME280;69746;45.596;10.154;2023-07-31T01:15:08;99261.69;;;26.87;56.58
80410;BME280;69746;45.596;10.154;2023-07-31T01:17:38;99257.28;;;26.86;56.47
80410;BME280;69746;45.596;10.154;2023-07-31T01:31:07;99231.97;;;26.82;56.59
80410;BME280;69746;45.596;10.154;2023-07-31T01:33:37;99220.31;;;26.80;56.57
80410;BME280;69746;45.596;10.154;2023-07-31T01:36:03;99223.91;;;26.81;56.55
80410;BME280;69746;45.596;10.154;2023-07-31T01:38:29;99223.91;;;26.81;56.47
80410;BME280;69746;45.596;10.154;2023-07-31T01:40:55;99225.22;;;26.83;56.48
80410;BME280;69746;45.596;10.154;2023-07-31T01:43:20;99229.66;;;26.84;56.60
80410;BME280;69746;45.596;10.154;2023-07-31T01:45:46;99224.84;;;26.85;56.23
80410;BME280;69746;45.596;10.154;2023-07-31T01:48:12;99223.13;;;26.80;56.45
80410;BME280;69746;45.596;10.154;2023-07-31T01:50:40;99229.16;;;26.82;56.44
80410;BME280;69746;45.596;10.154;2023-07-31T01:53:06;99226.03;;;26.84;56.41
80410;BME280;69746;45.596;10.154;2023-07-31T01:55:32;99221.25;;;26.84;56.21
80410;BME280;69746;45.596;10.154;2023-07-31T01:57:58;99219.94;;;26.82;56.36
80410;BME280;69746;45.596;10.154;2023-07-31T02:00:24;99222.75;;;26.82;56.57
80410;BME280;69746;45.596;10.154;2023-07-31T02:02:49;99215.78;;;26.75;56.17
80410;BME280;69746;45.596;10.154;2023-07-31T02:05:15;99225.47;;;26.78;56.60
80410;BME280;69746;45.596;10.154;2023-07-31T02:07:41;99221.03;;;26.77;56.55
80410;BME280;69746;45.596;10.154;2023-07-31T02:10:07;99211.38;;;26.74;56.37
80410;BME280;69746;45.596;10.154;2023-07-31T02:12:33;99217.31;;;26.73;56.32
80410;BME280;69746;45.596;10.154;2023-07-31T02:15:02;99225.00;;;26.76;56.30
80410;BME280;69746;45.596;10.154;2023-07-31T02:17:28;99217.69;;;26.71;56.35
80410;BME280;69746;45.596;10.154;2023-07-31T02:19:55;99208.47;;;26.71;56.33
80410;BME280;69746;45.596;10.154;2023-07-31T02:22:20;99204.88;;;26.70;56.71
80410;BME280;69746;45.596;10.154;2023-07-31T02:24:46;99199.97;;;26.67;56.64
80410;BME280;69746;45.596;10.154;2023-07-31T02:27:12;99206.94;;;26.73;56.45
80410;BME280;69746;45.596;10.154;2023-07-31T02:29:38;99211.38;;;26.74;56.77
80410;BME280;69746;45.596;10.154;2023-07-31T02:32:03;99215.69;;;26.72;57.21
80410;BME280;69746;45.596;10.154;2023-07-31T02:34:30;99209.53;;;26.66;57.41
80410;BME280;69746;45.596;10.154;2023-07-31T02:36:56;99215.56;;;26.68;57.24
80410;BME280;69746;45.596;10.154;2023-07-31T02:39:22;99216.38;;;26.69;56.86
80410;BME280;69746;45.596;10.154;2023-07-31T02:41:51;99222.00;;;26.69;56.68
80410;BME280;69746;45.596;10.154;2023-07-31T02:44:16;99206.72;;;26.66;56.88
80410;BME280;69746;45.596;10.154;2023-07-31T02:46:42;99217.69;;;26.71;56.84
80410;BME280;69746;45.596;10.154;2023-07-31T02:49:08;99218.50;;;26.72;56.95
80410;BME280;69746;45.596;10.154;2023-07-31T02:51:34;99219.75;;;26.74;56.81
80410;BME280;69746;45.596;10.154;2023-07-31T02:54:00;99219.06;;;26.78;56.97
80410;BME280;69746;45.596;10.154;2023-07-31T02:56:26;99215.44;;;26.77;57.04
80410;BME280;69746;45.596;10.154;2023-07-31T02:58:51;99208.22;;;26.76;57.04
80410;BME280;69746;45.596;10.154;2023-07-31T03:01:17;99204.88;;;26.70;57.10
80410;BME280;69746;45.596;10.154;2023-07-31T03:03:46;99213.34;;;26.74;56.91
80410;BME280;69746;45.596;10.154;2023-07-31T03:06:12;99222.94;;;26.73;56.80
80410;BME280;69746;45.596;10.154;2023-07-31T03:08:37;99223.16;;;26.68;57.00
80410;BME280;69746;45.596;10.154;2023-07-31T03:11:03;99227.94;;;26.67;56.86
80410;BME280;69746;45.596;10.154;2023-07-31T03:13:29;99225.88;;;26.64;57.12
80410;BME280;69746;45.596;10.154;2023-07-31T03:15:55;99220.28;;;26.64;56.94
80410;BME280;69746;45.596;10.154;2023-07-31T03:18:20;99223.06;;;26.64;56.87
80410;BME280;69746;45.596;10.154;2023-07-31T03:20:46;99227.50;;;26.65;57.18
80410;BME280;69746;45.596;10.154;2023-07-31T03:23:12;99220.72;;;26.66;56.85
80410;BME280;69746;45.596;10.154;2023-07-31T03:25:39;99215.47;;;26.65;56.96
80410;BME280;69746;45.596;10.154;2023-07-31T03:28:05;99213.50;;;26.65;57.03
80410;BME280;69746;45.596;10.154;2023-07-31T03:30:36;99206.72;;;26.66;56.89
80410;BME280;69746;45.596;10.154;2023-07-31T03:33:04;99207.91;;;26.65;56.89
80410;BME280;69746;45.596;10.154;2023-07-31T03:35:29;99206.72;;;26.66;56.68
80410;BME280;69746;45.596;10.154;2023-07-31T03:37:55;99205.47;;;26.64;56.74
80410;BME280;69746;45.596;10.154;2023-07-31T03:40:21;99198.69;;;26.65;56.80
80410;BME280;69746;45.596;10.154;2023-07-31T03:42:46;99207.91;;;26.65;56.89
80410;BME280;69746;45.596;10.154;2023-07-31T03:45:12;99207.44;;;26.63;56.40
80410;BME280;69746;45.596;10.154;2023-07-31T03:47:38;99207.81;;;26.62;56.63
80410;BME280;69746;45.596;10.154;2023-07-31T03:50:04;99210.97;;;26.60;57.01
80410;BME280;69746;45.596;10.154;2023-07-31T03:52:31;99209.69;;;26.58;57.14
80410;BME280;69746;45.596;10.154;2023-07-31T03:54:56;99203.97;;;26.54;56.91
80410;BME280;69746;45.596;10.154;2023-07-31T03:57:22;99203.53;;;26.52;57.02
80410;BME280;69746;45.596;10.154;2023-07-31T03:59:48;99209.56;;;26.54;56.91
80410;BME280;69746;45.596;10.154;2023-07-31T04:02:13;99214.00;;;26.55;57.07
80410;BME280;69746;45.596;10.154;2023-07-31T04:04:39;99214.81;;;26.56;56.99
80410;BME280;69746;45.596;10.154;2023-07-31T04:07:05;99206.78;;;26.54;57.21
80410;BME280;69746;45.596;10.154;2023-07-31T04:09:31;99212.13;;;26.59;56.93
80410;BME280;69746;45.596;10.154;2023-07-31T04:11:57;99220.63;;;26.63;57.28
80410;BME280;69746;45.596;10.154;2023-07-31T04:14:22;99229.47;;;26.65;57.27
80410;BME280;69746;45.596;10.154;2023-07-31T04:16:50;99231.47;;;26.64;57.27
80410;BME280;69746;45.596;10.154;2023-07-31T04:19:16;99235.16;;;26.68;57.72
80410;BME280;69746;45.596;10.154;2023-07-31T04:21:44;99231.69;;;26.71;57.83
80410;BME280;69746;45.596;10.154;2023-07-31T04:24:10;99240.06;;;26.71;57.88
80410;BME280;69746;45.596;10.154;2023-07-31T04:26:36;99230.16;;;26.74;57.66
80410;BME280;69746;45.596;10.154;2023-07-31T04:29:02;99234.94;;;26.73;57.90
80410;BME280;69746;45.596;10.154;2023-07-31T04:31:27;99226.53;;;26.73;57.69
80410;BME280;69746;45.596;10.154;2023-07-31T04:33:53;99228.63;;;26.77;57.67
80410;BME280;69746;45.596;10.154;2023-07-31T04:36:19;99230.97;;;26.74;57.34
80410;BME280;69746;45.596;10.154;2023-07-31T04:38:44;99228.88;;;26.71;57.17
80410;BME280;69746;45.596;10.154;2023-07-31T04:41:10;99226.09;;;26.71;57.37
80410;BME280;69746;45.596;10.154;2023-07-31T04:43:36;99230.75;;;26.67;57.08
80410;BME280;69746;45.596;10.154;2023-07-31T04:46:05;99231.56;;;26.68;57.31
80410;BME280;69746;45.596;10.154;2023-07-31T04:48:33;99230.38;;;26.69;57.11
80410;BME280;69746;45.596;10.154;2023-07-31T04:50:59;99239.25;;;26.71;57.26
80410;BME280;69746;45.596;10.154;2023-07-31T04:53:25;99236.47;;;26.71;57.35
80410;BME280;69746;45.596;10.154;2023-07-31T04:55:51;99231.81;;;26.63;57.18
80410;BME280;69746;45.596;10.154;2023-07-31T04:58:16;99227.50;;;26.65;57.18
80410;BME280;69746;45.596;10.154;2023-07-31T05:00:42;99220.28;;;26.64;56.90
80410;BME280;69746;45.596;10.154;2023-07-31T05:03:08;99217.94;;;26.66;57.23
80410;BME280;69746;45.596;10.154;2023-07-31T05:05:36;99230.38;;;26.69;57.05
80410;BME280;69746;45.596;10.154;2023-07-31T05:08:02;99226.44;;;26.70;56.74
80410;BME280;69746;45.596;10.154;2023-07-31T05:10:28;99228.97;;;26.75;56.61
80410;BME280;69746;45.596;10.154;2023-07-31T05:12:56;99237.47;;;26.79;56.80
80410;BME280;69746;45.596;10.154;2023-07-31T05:15:22;99233.94;;;26.82;56.93
80410;BME280;69746;45.596;10.154;2023-07-31T05:17:48;99238.03;;;26.84;56.58
80410;BME280;69746;45.596;10.154;2023-07-31T05:20:14;99244.09;;;26.86;56.61
80410;BME280;69746;45.596;10.154;2023-07-31T05:22:40;99246.53;;;26.88;56.59
80410;BME280;69746;45.596;10.154;2023-07-31T05:25:07;99252.56;;;26.90;56.22
80410;BME280;69746;45.596;10.154;2023-07-31T05:27:33;99249.41;;;26.91;56.30
80410;BME280;69746;45.596;10.154;2023-07-31T05:29:59;99254.66;;;26.93;56.44
80410;BME280;69746;45.596;10.154;2023-07-31T05:32:25;99250.69;;;26.94;56.07
80410;BME280;69746;45.596;10.154;2023-07-31T05:34:52;99259.09;;;26.94;56.02
80410;BME280;69746;45.596;10.154;2023-07-31T05:37:19;99270.75;;;26.96;56.10
80410;BME280;69746;45.596;10.154;2023-07-31T05:39:47;99264.00;;;26.97;56.35
80410;BME280;69746;45.596;10.154;2023-07-31T05:42:13;99265.63;;;26.98;56.30
80410;BME280;69746;45.596;10.154;2023-07-31T05:44:39;99272.84;;;26.99;55.91
80410;BME280;69746;45.596;10.154;2023-07-31T05:47:05;99277.28;;;27.00;55.98
80410;BME280;69746;45.596;10.154;2023-07-31T05:49:31;99278.94;;;27.01;56.07
80410;BME280;69746;45.596;10.154;2023-07-31T05:51:57;99279.75;;;27.01;55.92
80410;BME280;69746;45.596;10.154;2023-07-31T05:54:22;99280.19;;;27.03;56.01
80410;BME280;69746;45.596;10.154;2023-07-31T05:56:48;99280.19;;;27.03;55.87
80410;BME280;69746;45.596;10.154;2023-07-31T05:59:15;99284.16;;;27.02;55.92
80410;BME280;69746;45.596;10.154;2023-07-31T06:01:41;99291.03;;;27.05;55.65
80410;BME280;69746;45.596;10.154;2023-07-31T06:04:10;99281.81;;;27.04;56.03
80410;BME280;69746;45.596;10.154;2023-07-31T06:06:36;99284.25;;;27.06;55.78
80410;BME280;69746;45.596;10.154;2023-07-31T06:09:01;99281.91;;;27.08;55.70
80410;BME280;69746;45.596;10.154;2023-07-31T06:11:29;99286.38;;;27.09;55.68
80410;BME280;69746;45.596;10.154;2023-07-31T06:13:54;99275.97;;;27.10;55.72
80410;BME280;69746;45.596;10.154;2023-07-31T06:16:20;99277.59;;;27.11;55.82
80410;BME280;69746;45.596;10.154;2023-07-31T06:18:47;99275.63;;;27.11;55.79
80410;BME280;69746;45.596;10.154;2023-07-31T06:21:13;99271.66;;;27.12;55.51
80410;BME280;69746;45.596;10.154;2023-07-31T06:23:39;99268.84;;;27.12;55.63
80410;BME280;69746;45.596;10.154;2023-07-31T06:26:04;99272.47;;;27.13;55.63
80410;BME280;69746;45.596;10.154;2023-07-31T06:28:31;99284.09;;;27.15;55.39
80410;BME280;69746;45.596;10.154;2023-07-31T06:31:00;99280.94;;;27.16;55.42
80410;BME280;69746;45.596;10.154;2023-07-31T06:33:27;99282.13;;;27.15;55.59
80410;BME280;69746;45.596;10.154;2023-07-31T06:35:53;99294.94;;;27.16;55.46
80410;BME280;69746;45.596;10.154;2023-07-31T06:38:26;99290.16;;;27.17;55.46
80410;BME280;69746;45.596;10.154;2023-07-31T06:40:52;99297.75;;;27.16;55.49
80410;BME280;69746;45.596;10.154;2023-07-31T06:43:18;99290.16;;;27.17;55.26
80410;BME280;69746;45.596;10.154;2023-07-31T06:45:44;99293.78;;;27.17;55.26
80410;BME280;69746;45.596;10.154;2023-07-31T06:48:10;99299.00;;;27.19;55.31
80410;BME280;69746;45.596;10.154;2023-07-31T06:50:35;99301.00;;;27.18;55.36
80410;BME280;69746;45.596;10.154;2023-07-31T06:53:02;99303.81;;;27.18;55.22
80410;BME280;69746;45.596;10.154;2023-07-31T06:55:28;99307.06;;;27.20;55.24
80410;BME280;69746;45.596;10.154;2023-07-31T06:57:54;99309.03;;;27.20;55.23
80410;BME280;69746;45.596;10.154;2023-07-31T07:00:21;99314.63;;;27.20;55.24
80410;BME280;69746;45.596;10.154;2023-07-31T07:02:48;99313.47;;;27.21;55.33
80410;BME280;69746;45.596;10.154;2023-07-31T07:05:17;99310.34;;;27.22;55.04
80410;BME280;69746;45.596;10.154;2023-07-31T07:07:43;99313.94;;;27.23;55.04
80410;BME280;69746;45.596;10.154;2023-07-31T07:10:09;99312.78;;;27.24;55.03
80410;BME280;69746;45.596;10.154;2023-07-31T07:12:35;99311.59;;;27.25;55.19
80410;BME280;69746;45.596;10.154;2023-07-31T07:15:02;99300.41;;;27.25;55.15
80410;BME280;69746;45.596;10.154;2023-07-31T07:17:30;99299.22;;;27.26;55.21
80410;BME280;69746;45.596;10.154;2023-07-31T07:19:59;99302.03;;;27.26;55.11
80410;BME280;69746;45.596;10.154;2023-07-31T07:22:28;99305.66;;;27.26;55.14
80410;BME280;69746;45.596;10.154;2023-07-31T07:24:54;99310.44;;;27.26;55.13
80410;BME280;69746;45.596;10.154;2023-07-31T07:27:20;99302.84;;;27.26;54.90
80410;BME280;69746;45.596;10.154;2023-07-31T07:29:50;99304.47;;;27.27;54.93
80410;BME280;69746;45.596;10.154;2023-07-31T07:32:18;99308.09;;;27.28;54.86
80410;BME280;69746;45.596;10.154;2023-07-31T07:34:44;99306.91;;;27.29;54.87
80410;BME280;69746;45.596;10.154;2023-07-31T07:37:10;99304.09;;;27.29;54.82
80410;BME280;69746;45.596;10.154;2023-07-31T07:39:36;99294.44;;;27.26;54.77
80410;BME280;69746;45.596;10.154;2023-07-31T07:42:02;99293.25;;;27.27;54.99
80410;BME280;69746;45.596;10.154;2023-07-31T07:44:36;99298.16;;;27.30;55.00
80410;BME280;69746;45.596;10.154;2023-07-31T07:47:05;99294.53;;;27.30;54.82
80410;BME280;69746;45.596;10.154;2023-07-31T07:49:35;99302.56;;;27.31;54.88
80410;BME280;69746;45.596;10.154;2023-07-31T07:52:02;99300.59;;;27.32;54.81
80410;BME280;69746;45.596;10.154;2023-07-31T07:54:30;99308.97;;;27.32;54.72
80410;BME280;69746;45.596;10.154;2023-07-31T07:56:59;99306.19;;;27.32;54.87
80410;BME280;69746;45.596;10.154;2023-07-31T07:59:25;99310.97;;;27.31;54.61
80410;BME280;69746;45.596;10.154;2023-07-31T08:01:50;99314.13;;;27.30;54.71
80410;BME280;69746;45.596;10.154;2023-07-31T08:04:16;99315.75;;;27.31;54.84
80410;BME280;69746;45.596;10.154;2023-07-31T08:06:48;99315.03;;;27.34;54.75
80410;BME280;69746;45.596;10.154;2023-07-31T08:09:14;99311.44;;;27.33;54.85
80410;BME280;69746;45.596;10.154;2023-07-31T08:11:44;99313.09;;;27.35;54.62
80410;BME280;69746;45.596;10.154;2023-07-31T08:14:09;99298.59;;;27.32;54.83
80410;BME280;69746;45.596;10.154;2023-07-31T08:16:35;99303.38;;;27.32;54.46
80410;BME280;69746;45.596;10.154;2023-07-31T08:19:01;99305.13;;;27.37;54.67
80410;BME280;69746;45.596;10.154;2023-07-31T08:21:28;99302.31;;;27.37;54.64
80410;BME280;69746;45.596;10.154;2023-07-31T08:23:54;99302.31;;;27.37;54.74
80410;BME280;69746;45.596;10.154;2023-07-31T08:26:20;99302.31;;;27.37;54.85
80410;BME280;69746;45.596;10.154;2023-07-31T08:28:47;99293.56;;;27.38;54.32
80410;BME280;69746;45.596;10.154;2023-07-31T08:31:16;99306.41;;;27.39;54.65
80410;BME280;69746;45.596;10.154;2023-07-31T08:33:41;99302.78;;;27.39;54.59
80410;BME280;69746;45.596;10.154;2023-07-31T08:36:07;99299.63;;;27.40;54.63
80410;BME280;69746;45.596;10.154;2023-07-31T08:38:33;99298.81;;;27.40;54.48
80410;BME280;69746;45.596;10.154;2023-07-31T08:40:59;99300.44;;;27.41;54.65
80410;BME280;69746;45.596;10.154;2023-07-31T08:43:26;99292.38;;;27.39;54.62
80410;BME280;69746;45.596;10.154;2023-07-31T08:45:52;99300.88;;;27.43;54.52
80410;BME280;69746;45.596;10.154;2023-07-31T08:48:20;99294.81;;;27.41;54.44
80410;BME280;69746;45.596;10.154;2023-07-31T08:50:47;99298.88;;;27.43;54.52
80410;BME280;69746;45.596;10.154;2023-07-31T08:53:13;99287.69;;;27.43;54.50
80410;BME280;69746;45.596;10.154;2023-07-31T08:55:41;99287.22;;;27.41;54.29
80410;BME280;69746;45.596;10.154;2023-07-31T08:58:08;99284.44;;;27.41;54.68
80410;BME280;69746;45.596;10.154;2023-07-31T09:00:34;99281.28;;;27.43;54.41
80410;BME280;69746;45.596;10.154;2023-07-31T09:03:03;99282.53;;;27.45;54.47
80410;BME280;69746;45.596;10.154;2023-07-31T09:05:31;99275.66;;;27.43;54.35
80410;BME280;69746;45.596;10.154;2023-07-31T09:07:57;99280.19;;;27.47;54.31
80410;BME280;69746;45.596;10.154;2023-07-31T09:10:24;99282.53;;;27.45;54.34
80410;BME280;69746;45.596;10.154;2023-07-31T09:12:51;99281.84;;;27.48;54.48
80410;BME280;69746;45.596;10.154;2023-07-31T09:15:18;99276.56;;;27.47;54.36
80410;BME280;69746;45.596;10.154;2023-07-31T09:17:44;99277.03;;;27.49;54.31
80410;BME280;69746;45.596;10.154;2023-07-31T09:20:18;99273.88;;;27.50;54.35
80410;BME280;69746;45.596;10.154;2023-07-31T09:22:48;99270.25;;;27.50;54.47
80410;BME280;69746;45.596;10.154;2023-07-31T09:30:20;99275.50;;;27.51;54.27
80410;BME280;69746;45.596;10.154;2023-07-31T09:32:48;99269.91;;;27.51;54.24
80410;BME280;69746;45.596;10.154;2023-07-31T09:35:22;99273.16;;;27.53;54.40
80410;BME280;69746;45.596;10.154;2023-07-31T09:37:53;99278.75;;;27.53;54.29
80410;BME280;69746;45.596;10.154;2023-07-31T09:40:30;99277.94;;;27.53;54.33
80410;BME280;69746;45.596;10.154;2023-07-31T09:42:58;99271.16;;;27.54;54.27
80410;BME280;69746;45.596;10.154;2023-07-31T09:45:26;99273.97;;;27.54;54.15
80410;BME280;69746;45.596;10.154;2023-07-31T09:47:55;99285.16;;;27.54;54.18
80410;BME280;69746;45.596;10.154;2023-07-31T09:50:24;99284.00;;;27.55;54.42
80410;BME280;69746;45.596;10.154;2023-07-31T09:52:52;99277.22;;;27.56;54.21
80410;BME280;69746;45.596;10.154;2023-07-31T09:55:19;99276.84;;;27.57;54.34
80410;BME280;69746;45.596;10.154;2023-07-31T09:57:47;99283.28;;;27.58;54.09
80410;BME280;69746;45.596;10.154;2023-07-31T10:00:16;99282.09;;;27.59;54.26
80410;BME280;69746;45.596;10.154;2023-07-31T10:02:45;99278.47;;;27.58;54.25
80410;BME280;69746;45.596;10.154;2023-07-31T10:05:14;99287.34;;;27.60;54.27
80410;BME280;69746;45.596;10.154;2023-07-31T10:07:54;99276.97;;;27.61;54.06
80410;BME280;69746;45.596;10.154;2023-07-31T10:10:22;99281.41;;;27.62;54.14
80410;BME280;69746;45.596;10.154;2023-07-31T10:12:49;99274.97;;;27.61;54.14
80410;BME280;69746;45.596;10.154;2023-07-31T10:15:19;99273.47;;;27.64;54.11
80410;BME280;69746;45.596;10.154;2023-07-31T10:17:49;99267.00;;;27.63;54.18
80410;BME280;69746;45.596;10.154;2023-07-31T10:20:16;99267.00;;;27.63;54.17
80410;BME280;69746;45.596;10.154;2023-07-31T10:22:43;99263.06;;;27.65;54.10
80410;BME280;69746;45.596;10.154;2023-07-31T10:25:12;99259.09;;;27.66;54.18
80410;BME280;69746;45.596;10.154;2023-07-31T10:27:41;99262.25;;;27.64;54.03
80410;BME280;69746;45.596;10.154;2023-07-31T10:30:17;99262.34;;;27.68;54.10
80410;BME280;69746;45.596;10.154;2023-07-31T10:32:44;99259.53;;;27.68;54.01
80410;BME280;69746;45.596;10.154;2023-07-31T10:35:11;99255.91;;;27.67;54.08
80410;BME280;69746;45.596;10.154;2023-07-31T10:37:42;99252.75;;;27.69;53.99
80410;BME280;69746;45.596;10.154;2023-07-31T10:40:19;99255.19;;;27.70;53.99
80410;BME280;69746;45.596;10.154;2023-07-31T10:42:55;99253.56;;;27.69;54.03
80410;BME280;69746;45.596;10.154;2023-07-31T10:45:37;99255.63;;;27.72;54.07
80410;BME280;69746;45.596;10.154;2023-07-31T10:48:06;99254.00;;;27.71;54.11
80410;BME280;69746;45.596;10.154;2023-07-31T10:50:37;99257.63;;;27.72;54.00
80410;BME280;69746;45.596;10.154;2023-07-31T10:53:03;99264.03;;;27.72;53.97
80410;BME280;69746;45.596;10.154;2023-07-31T10:55:38;99260.06;;;27.73;53.97
80410;BME280;69746;45.596;10.154;2023-07-31T10:58:13;99256.13;;;27.74;53.98
80410;BME280;69746;45.596;10.154;2023-07-31T11:00:41;99266.50;;;27.74;53.85
80410;BME280;69746;45.596;10.154;2023-07-31T11:03:13;99263.34;;;27.75;53.95
80410;BME280;69746;45.596;10.154;2023-07-31T11:05:54;99266.97;;;27.76;53.93
80410;BME280;69746;45.596;10.154;2023-07-31T11:08:26;99266.16;;;27.75;53.97
80410;BME280;69746;45.596;10.154;2023-07-31T11:13:30;99264.97;;;27.76;53.98
80410;BME280;69746;45.596;10.154;2023-07-31T11:15:57;99261.00;;;27.77;54.08
80410;BME280;69746;45.596;10.154;2023-07-31T11:18:24;99255.38;;;27.77;54.05
80410;BME280;69746;45.596;10.154;2023-07-31T11:20:49;99256.19;;;27.78;53.96
80410;BME280;69746;45.596;10.154;2023-07-31T11:23:17;99257.00;;;27.78;54.06
80410;BME280;69746;45.596;10.154;2023-07-31T11:25:52;99248.22;;;27.80;54.07
80410;BME280;69746;45.596;10.154;2023-07-31T11:28:19;99246.25;;;27.80;54.00
80410;BME280;69746;45.596;10.154;2023-07-31T11:30:46;99253.84;;;27.80;54.11
80410;BME280;69746;45.596;10.154;2023-07-31T11:33:12;99256.28;;;27.81;53.93
80410;BME280;69746;45.596;10.154;2023-07-31T11:35:45;99248.69;;;27.82;53.98
80410;BME280;69746;45.596;10.154;2023-07-31T11:38:31;99237.09;;;27.83;53.87
80410;BME280;69746;45.596;10.154;2023-07-31T11:41:00;99235.47;;;27.82;54.02
80410;BME280;69746;45.596;10.154;2023-07-31T11:43:28;99220.28;;;27.83;53.95
80410;BME280;69746;45.596;10.154;2023-07-31T11:45:56;99221.09;;;27.84;53.92
80410;BME280;69746;45.596;10.154;2023-07-31T11:48:27;99221.47;;;27.82;54.03
80410;BME280;69746;45.596;10.154;2023-07-31T11:50:57;99224.34;;;27.86;54.05
80410;BME280;69746;45.596;10.154;2023-07-31T11:56:13;99224.00;;;27.87;53.97
80410;BME280;69746;45.596;10.154;2023-07-31T11:58:40;99216.75;;;27.86;54.03
80410;BME280;69746;45.596;10.154;2023-07-31T12:01:16;99201.22;;;27.89;54.11
80410;BME280;69746;45.596;10.154;2023-07-31T12:03:44;99196.78;;;27.88;53.93
80410;BME280;69746;45.596;10.154;2023-07-31T12:06:11;99200.41;;;27.88;53.93
80410;BME280;69746;45.596;10.154;2023-07-31T12:08:38;99196.41;;;27.89;53.81
80410;BME280;69746;45.596;10.154;2023-07-31T12:11:05;99190.44;;;27.91;53.82
80410;BME280;69746;45.596;10.154;2023-07-31T12:13:34;99190.44;;;27.91;53.90
80410;BME280;69746;45.596;10.154;2023-07-31T12:16:04;99189.63;;;27.90;53.84
80410;BME280;69746;45.596;10.154;2023-07-31T12:18:37;99182.84;;;27.91;53.82
80410;BME280;69746;45.596;10.154;2023-07-31T12:21:05;99176.41;;;27.91;54.00
80410;BME280;69746;45.596;10.154;2023-07-31T12:23:33;99170.00;;;27.90;53.98
80410;BME280;69746;45.596;10.154;2023-07-31T12:26:06;99168.00;;;27.91;53.88
80410;BME280;69746;45.596;10.154;2023-07-31T12:28:41;99179.66;;;27.93;53.79
80410;BME280;69746;45.596;10.154;2023-07-31T12:33:39;99159.69;;;27.95;53.82
80410;BME280;69746;45.596;10.154;2023-07-31T12:36:11;99160.47;;;27.95;53.77
80410;BME280;69746;45.596;10.154;2023-07-31T12:38:38;99149.28;;;27.95;53.87
80410;BME280;69746;45.596;10.154;2023-07-31T12:41:08;99140.50;;;27.97;53.86
80410;BME280;69746;45.596;10.154;2023-07-31T12:43:35;99134.06;;;27.96;53.93
80410;BME280;69746;45.596;10.154;2023-07-31T12:46:00;99132.88;;;27.97;53.80
80410;BME280;69746;45.596;10.154;2023-07-31T12:48:27;99132.88;;;27.97;53.90
80410;BME280;69746;45.596;10.154;2023-07-31T12:50:57;99133.69;;;27.98;53.82
80410;BME280;69746;45.596;10.154;2023-07-31T12:53:23;99126.09;;;27.98;53.66
80410;BME280;69746;45.596;10.154;2023-07-31T12:56:02;99123.78;;;28.00;53.74
80410;BME280;69746;45.596;10.154;2023-07-31T12:58:28;99116.50;;;27.99;53.78
80410;BME280;69746;45.596;10.154;2023-07-31T13:00:55;99115.34;;;28.00;53.71
80410;BME280;69746;45.596;10.154;2023-07-31T13:03:24;99108.94;;;28.00;53.83
80410;BME280;69746;45.596;10.154;2023-07-31T13:05:50;99111.38;;;28.01;53.71
80410;BME280;69746;45.596;10.154;2023-07-31T13:08:16;99111.38;;;28.01;53.73
80410;BME280;69746;45.596;10.154;2023-07-31T13:10:43;99100.16;;;28.01;53.79
80410;BME280;69746;45.596;10.154;2023-07-31T13:13:10;99090.56;;;28.02;53.65
80410;BME280;69746;45.596;10.154;2023-07-31T13:15:38;99095.81;;;28.04;53.80